createdAt,value
2022-10-27T00:01:22.350Z,69.29
2022-10-27T00:06:24.579Z,69.36
2022-10-27T00:11:26.743Z,69.53
2022-10-27T00:16:28.910Z,69.53
2022-10-27T00:21:31.144Z,69.68
2022-10-27T00:26:33.310Z,69.83
2022-10-27T00:31:35.494Z,69.83
2022-10-27T00:36:37.725Z,70.17
2022-10-27T00:41:42.204Z,70.21
2022-10-27T00:46:46.506Z,70.43
2022-10-27T00:51:51.452Z,70.41
2022-10-27T00:56:54.817Z,70.51
2022-10-27T01:07:00.478Z,70.78
2022-10-27T01:12:02.642Z,70.69
2022-10-27T01:17:18.195Z,70.93
2022-10-27T01:22:45.127Z,70.99
2022-10-27T01:28:12.954Z,71.17
2022-10-27T01:33:19.594Z,70.92
2022-10-27T01:38:21.656Z,71.16
2022-10-27T01:43:25.469Z,71.25
2022-10-27T01:48:27.684Z,71.28
2022-10-27T01:53:36.939Z,71.96
2022-10-27T01:58:45.233Z,71.56
2022-10-27T02:03:59.462Z,71.56
2022-10-27T02:09:29.086Z,71.96
2022-10-27T02:14:31.311Z,71.70
2022-10-27T02:19:36.334Z,71.88
2022-10-27T02:24:39.145Z,71.94
2022-10-27T02:29:49.276Z,71.91
2022-10-27T02:34:52.233Z,71.98
2022-10-27T02:39:54.372Z,72.10
2022-10-27T02:44:56.513Z,72.11
2022-10-27T02:49:58.702Z,72.33
2022-10-27T02:55:00.870Z,72.20
2022-10-27T03:00:03.413Z,72.18
2022-10-27T03:05:06.703Z,72.49
2022-10-27T03:10:09.187Z,72.59
2022-10-27T03:15:11.418Z,72.57
2022-10-27T03:20:14.964Z,72.71
2022-10-27T03:25:17.412Z,72.84
2022-10-27T03:30:19.775Z,72.75
2022-10-27T03:35:24.031Z,72.64
2022-10-27T03:40:27.475Z,73.01
2022-10-27T03:45:29.742Z,73.01
2022-10-27T03:50:32.697Z,73.38
2022-10-27T03:55:36.015Z,73.27
2022-10-27T04:00:38.238Z,73.49
2022-10-27T04:05:40.658Z,73.45
2022-10-27T04:10:42.877Z,73.59
2022-10-27T04:15:45.075Z,73.70
2022-10-27T04:20:47.344Z,73.83
2022-10-27T04:25:49.566Z,73.82
2022-10-27T04:30:51.694Z,73.76
2022-10-27T04:35:53.847Z,74.07
2022-10-27T04:40:55.998Z,74.17
2022-10-27T04:45:58.250Z,74.05
2022-10-27T04:51:00.427Z,74.46
2022-10-27T04:56:02.834Z,74.38
2022-10-27T05:01:09.397Z,74.79
2022-10-27T05:06:11.666Z,74.83
2022-10-27T05:11:16.363Z,74.76
2022-10-27T05:16:22.015Z,75.17
2022-10-27T05:21:24.414Z,75.26
2022-10-27T05:26:26.713Z,75.35
2022-10-27T05:31:28.932Z,75.39
2022-10-27T05:36:31.196Z,75.57
2022-10-27T05:41:33.316Z,75.42
2022-10-27T05:46:35.513Z,75.54
2022-10-27T05:51:37.738Z,75.41
2022-10-27T05:56:39.924Z,75.48
2022-10-27T06:01:42.452Z,75.41
2022-10-27T06:06:44.707Z,75.30
2022-10-27T06:11:46.917Z,75.30
2022-10-27T06:16:49.276Z,75.09
2022-10-27T06:21:51.458Z,74.78
2022-10-27T06:26:56.796Z,74.54
2022-10-27T06:31:59.341Z,74.42
2022-10-27T06:37:03.697Z,74.10
2022-10-27T06:42:05.878Z,73.90
2022-10-27T06:47:08.029Z,73.66
2022-10-27T06:52:10.228Z,73.50
2022-10-27T06:57:12.499Z,73.39
2022-10-27T07:02:15.102Z,73.17
2022-10-27T07:07:17.447Z,73.40
2022-10-27T07:12:21.620Z,73.23
2022-10-27T07:17:26.375Z,73.15
2022-10-27T07:22:28.559Z,73.18
2022-10-27T07:27:30.690Z,73.05
2022-10-27T07:32:32.937Z,72.77
2022-10-27T07:37:35.112Z,72.73
2022-10-27T07:42:47.537Z,72.45
2022-10-27T07:47:57.264Z,72.79
2022-10-27T07:52:59.920Z,72.25
2022-10-27T07:58:03.634Z,72.34
2022-10-27T08:03:07.679Z,72.16
2022-10-27T08:08:10.405Z,71.91
2022-10-27T08:13:16.181Z,72.10
2022-10-27T08:18:18.475Z,71.84
2022-10-27T08:23:22.192Z,71.87
2022-10-27T08:28:27.112Z,71.50
2022-10-27T08:33:29.364Z,71.30
2022-10-27T08:38:33.132Z,71.08
2022-10-27T08:43:47.767Z,71.07
2022-10-27T08:48:50.231Z,71.06
2022-10-27T08:53:54.942Z,70.84
2022-10-27T08:58:57.150Z,70.83
2022-10-27T09:04:46.966Z,70.56
2022-10-27T09:10:00.268Z,70.57
2022-10-27T09:15:17.710Z,70.50
2022-10-27T09:20:28.102Z,70.40
2022-10-27T09:25:30.668Z,70.43
2022-10-27T09:30:36.126Z,70.18
2022-10-27T09:35:38.309Z,69.96
2022-10-27T09:40:40.552Z,70.03
2022-10-27T09:45:44.330Z,69.84
2022-10-27T09:51:00.394Z,69.50
2022-10-27T09:56:02.714Z,69.48
2022-10-27T10:01:06.421Z,69.12
2022-10-27T10:06:25.308Z,68.82
2022-10-27T10:11:27.503Z,69.19
2022-10-27T10:16:30.246Z,69.17
2022-10-27T10:21:48.643Z,68.84
2022-10-27T10:27:00.221Z,68.96
2022-10-27T10:32:11.140Z,68.31
2022-10-27T10:37:38.628Z,68.65
2022-10-27T10:42:50.046Z,68.52
2022-10-27T10:47:58.085Z,68.29
2022-10-27T10:53:00.616Z,68.62
2022-10-27T10:58:03.169Z,68.46
2022-10-27T11:03:16.392Z,67.91
2022-10-27T11:08:21.794Z,68.18
2022-10-27T11:13:40.889Z,68.03
2022-10-27T11:18:46.993Z,67.62
2022-10-27T11:23:50.485Z,67.88
2022-10-27T11:29:08.621Z,67.24
2022-10-27T11:34:22.288Z,67.49
2022-10-27T11:40:03.658Z,67.35
2022-10-27T11:45:17.919Z,67.61
2022-10-27T11:50:42.624Z,67.31
2022-10-27T11:55:50.993Z,67.41
2022-10-27T12:00:58.213Z,67.54
2022-10-27T12:06:11.827Z,67.12
2022-10-27T12:11:37.818Z,66.98
2022-10-27T12:16:55.507Z,67.09
2022-10-27T12:22:35.997Z,66.79
2022-10-27T12:27:45.038Z,66.92
2022-10-27T12:32:56.238Z,67.07
2022-10-27T12:38:17.300Z,67.00
2022-10-27T12:43:32.648Z,66.76
2022-10-27T12:48:50.799Z,67.22
2022-10-27T12:54:15.282Z,67.23
2022-10-27T12:59:56.127Z,67.00
2022-10-27T13:05:31.246Z,67.39
2022-10-27T13:10:57.814Z,67.27
2022-10-27T13:16:27.853Z,67.65
2022-10-27T13:21:50.861Z,68.06
2022-10-27T13:27:04.849Z,68.24
2022-10-27T13:32:29.346Z,68.42
2022-10-27T13:38:18.268Z,68.64
2022-10-27T13:43:24.871Z,68.58
2022-10-27T13:48:27.359Z,68.83
2022-10-27T13:53:29.565Z,68.96
2022-10-27T13:59:22.979Z,69.43
2022-10-27T14:04:35.406Z,69.36
2022-10-27T14:09:46.091Z,69.58
2022-10-27T14:14:51.667Z,69.65
2022-10-27T14:20:04.823Z,69.90
2022-10-27T14:25:22.136Z,70.18
2022-10-27T14:30:24.429Z,69.96
2022-10-27T14:35:28.954Z,70.24
2022-10-27T14:40:36.982Z,70.45
2022-10-27T14:45:40.699Z,70.39
2022-10-27T14:50:42.948Z,70.70
2022-10-27T14:55:45.137Z,70.90
2022-10-27T15:00:50.847Z,71.35
2022-10-27T15:05:52.978Z,71.27
2022-10-27T15:11:00.357Z,71.62
2022-10-27T15:16:09.585Z,71.73
2022-10-27T15:21:14.552Z,71.65
2022-10-27T15:26:22.239Z,71.95
2022-10-27T15:31:24.713Z,71.81
2022-10-27T15:36:27.173Z,71.96
2022-10-27T15:41:29.914Z,72.14
2022-10-27T15:46:34.272Z,72.18
2022-10-27T15:51:43.665Z,72.84
2022-10-27T15:56:51.484Z,72.83
2022-10-27T16:02:04.204Z,72.76
2022-10-27T16:07:12.567Z,73.13
2022-10-27T16:12:50.072Z,72.79
2022-10-27T16:17:55.293Z,73.06
2022-10-27T16:22:57.871Z,72.87
2022-10-27T16:28:02.858Z,72.79
2022-10-27T16:33:05.147Z,73.17
2022-10-27T16:38:07.420Z,73.39
2022-10-27T16:43:24.923Z,74.61
2022-10-27T16:48:27.211Z,73.79
2022-10-27T16:53:29.551Z,73.86
2022-10-27T16:58:36.378Z,74.48
2022-10-27T17:03:38.946Z,74.06
2022-10-27T17:08:41.200Z,74.14
2022-10-27T17:13:43.666Z,74.29
2022-10-27T17:18:47.855Z,74.31
2022-10-27T17:23:50.180Z,74.33
2022-10-27T17:28:52.548Z,74.35
2022-10-27T17:33:59.873Z,74.65
2022-10-27T17:39:04.024Z,74.60
2022-10-27T17:44:06.523Z,74.86
2022-10-27T17:49:09.302Z,74.74
2022-10-27T17:54:13.291Z,75.01
2022-10-27T17:59:16.630Z,75.02
2022-10-27T18:04:23.207Z,75.19
2022-10-27T18:09:26.004Z,75.22
2022-10-27T18:14:28.404Z,75.20
2022-10-27T18:19:33.119Z,75.44
2022-10-27T18:24:36.356Z,75.37
2022-10-27T18:29:39.069Z,75.31
2022-10-27T18:34:41.292Z,75.58
2022-10-27T18:39:43.541Z,75.33
2022-10-27T18:44:45.717Z,75.36
2022-10-27T18:49:48.908Z,75.43
2022-10-27T18:54:52.247Z,75.29
2022-10-27T18:59:54.545Z,75.32
2022-10-27T19:04:57.286Z,75.61
2022-10-27T19:09:59.476Z,75.67
2022-10-27T19:15:01.654Z,75.79
2022-10-27T19:20:05.689Z,75.80
2022-10-27T19:25:08.502Z,75.90
2022-10-27T19:30:11.490Z,75.93
2022-10-27T19:35:13.827Z,75.93
2022-10-27T19:40:16.024Z,76.04
2022-10-27T19:45:18.248Z,76.29
2022-10-27T19:50:20.575Z,76.10
2022-10-27T19:55:22.680Z,76.24
2022-10-27T20:00:25.023Z,76.40
2022-10-27T20:05:27.155Z,76.42
2022-10-27T20:10:29.318Z,76.44
2022-10-27T20:15:34.476Z,76.59
2022-10-27T20:20:36.631Z,76.56
2022-10-27T20:25:38.737Z,76.53
2022-10-27T20:30:40.921Z,76.47
2022-10-27T20:35:46.254Z,76.47
2022-10-27T20:40:48.447Z,76.26
2022-10-27T20:45:57.141Z,76.99
2022-10-27T20:51:04.805Z,76.90
2022-10-27T20:56:08.348Z,76.54
2022-10-27T21:01:30.730Z,77.58
2022-10-27T21:06:39.243Z,77.08
2022-10-27T21:11:42.045Z,76.97
2022-10-27T21:16:47.249Z,77.04
2022-10-27T21:21:56.519Z,77.10
2022-10-27T21:27:04.485Z,77.26
2022-10-27T21:32:06.866Z,77.24
2022-10-27T21:37:08.977Z,77.56
2022-10-27T21:42:11.167Z,77.64
2022-10-27T21:47:13.402Z,77.70
2022-10-27T21:52:18.384Z,77.53
2022-10-27T21:57:21.960Z,77.85
2022-10-27T22:02:24.209Z,77.96
2022-10-27T22:07:26.504Z,78.06
2022-10-27T22:12:28.739Z,77.95
2022-10-27T22:17:32.670Z,78.08
2022-10-27T22:22:34.832Z,78.15
2022-10-27T22:27:39.120Z,78.17
2022-10-27T22:32:41.268Z,78.34
2022-10-27T22:37:43.469Z,78.24
2022-10-27T22:42:45.594Z,78.32
2022-10-27T22:47:47.777Z,78.27
2022-10-27T22:52:50.035Z,78.19
2022-10-27T22:57:52.411Z,78.33
2022-10-27T23:02:55.040Z,78.32
2022-10-27T23:07:57.745Z,78.49
2022-10-27T23:13:00.387Z,78.43
2022-10-27T23:18:03.342Z,78.42
2022-10-27T23:23:05.548Z,78.47
2022-10-27T23:28:07.832Z,78.49
2022-10-27T23:33:10.232Z,78.54
2022-10-27T23:38:12.447Z,78.49
2022-10-27T23:43:14.605Z,78.45
2022-10-27T23:48:16.919Z,78.55
2022-10-27T23:53:19.113Z,78.54
2022-10-27T23:58:21.620Z,78.74
